createdAt,value
2023-01-22T00:01:12.613Z,30.50
2023-01-22T00:03:46.521Z,25.33
2023-01-22T00:06:14.457Z,27.73
2023-01-22T00:11:11.868Z,30.60
2023-01-22T00:13:38.805Z,25.63
2023-01-22T00:16:07.331Z,29.17
2023-01-22T00:18:35.060Z,31.70
2023-01-22T00:21:02.203Z,28.05
2023-01-22T00:23:29.058Z,27.42
2023-01-22T00:26:12.223Z,24.87
2023-01-22T00:31:10.329Z,26.75
2023-01-22T00:33:38.828Z,22.13
2023-01-22T00:36:12.620Z,23.63
2023-01-22T00:38:39.874Z,25.98
2023-01-22T00:41:08.026Z,25.07
2023-01-22T00:43:36.431Z,25.48
2023-01-22T00:46:03.302Z,25.35
2023-01-22T00:48:29.991Z,24.15
2023-01-22T00:50:56.992Z,25.17
2023-01-22T00:53:24.365Z,19.52
2023-01-22T00:55:56.772Z,20.27
2023-01-22T00:58:24.036Z,19.42
2023-01-22T01:00:51.513Z,22.98
2023-01-22T01:03:27.807Z,22.55
2023-01-22T01:05:56.302Z,18.90
2023-01-22T01:08:24.222Z,19.13
2023-01-22T01:10:55.891Z,22.60
2023-01-22T01:13:23.513Z,21.98
2023-01-22T01:15:50.548Z,24.25
2023-01-22T01:18:17.740Z,24.85
2023-01-22T01:20:44.391Z,21.35
2023-01-22T01:23:11.089Z,17.83
2023-01-22T01:25:40.520Z,18.73
2023-01-22T01:28:07.169Z,16.40
2023-01-22T01:30:34.152Z,18.05
2023-01-22T01:33:00.868Z,19.35
2023-01-22T01:35:27.605Z,19.70
2023-01-22T01:37:54.342Z,20.15
2023-01-22T01:40:21.003Z,17.50
2023-01-22T01:42:47.965Z,20.17
2023-01-22T01:45:30.868Z,18.42
2023-01-22T01:48:14.813Z,18.85
2023-01-22T01:50:43.302Z,16.70
2023-01-22T01:53:10.009Z,19.50
2023-01-22T01:55:39.863Z,15.50
2023-01-22T01:58:18.570Z,17.77
2023-01-22T02:00:47.242Z,18.70
2023-01-22T02:03:14.285Z,20.17
2023-01-22T02:08:08.619Z,15.88
2023-01-22T02:10:37.675Z,18.35
2023-01-22T02:13:10.494Z,16.88
2023-01-22T02:15:39.396Z,18.75
2023-01-22T02:18:06.265Z,19.52
2023-01-22T02:23:07.861Z,16.40
2023-01-22T02:25:34.933Z,18.17
2023-01-22T02:28:01.680Z,18.73
2023-01-22T02:30:28.606Z,16.95
2023-01-22T02:32:55.304Z,20.97
2023-01-22T02:35:22.044Z,20.20
2023-01-22T02:37:49.311Z,19.35
2023-01-22T02:40:16.793Z,16.05
2023-01-22T02:42:46.003Z,20.08
2023-01-22T02:45:12.821Z,22.40
2023-01-22T02:47:39.489Z,20.23
2023-01-22T02:50:06.663Z,21.60
2023-01-22T02:52:33.433Z,24.77
2023-01-22T02:55:00.133Z,24.10
2023-01-22T02:57:29.408Z,22.05
2023-01-22T02:59:56.053Z,18.75
2023-01-22T03:02:25.010Z,17.88
2023-01-22T03:04:52.125Z,14.57
2023-01-22T03:07:19.302Z,15.77
2023-01-22T03:09:46.083Z,20.87
2023-01-22T03:12:12.990Z,16.85
2023-01-22T03:14:43.159Z,17.60
2023-01-22T03:17:28.647Z,17.17
2023-01-22T03:20:13.842Z,19.50
2023-01-22T03:22:40.501Z,16.50
2023-01-22T03:25:07.576Z,13.67
2023-01-22T03:27:34.331Z,14.88
2023-01-22T03:30:02.092Z,13.55
2023-01-22T03:32:28.775Z,15.00
2023-01-22T03:34:56.251Z,13.77
2023-01-22T03:37:23.095Z,18.95
2023-01-22T03:39:52.724Z,14.40
2023-01-22T03:42:19.353Z,16.05
2023-01-22T03:44:46.100Z,16.70
2023-01-22T03:47:12.908Z,13.20
2023-01-22T03:49:39.555Z,13.38
2023-01-22T03:52:06.356Z,12.55
2023-01-22T03:54:33.072Z,13.17
2023-01-22T03:56:59.708Z,12.27
2023-01-22T03:59:26.925Z,16.38
2023-01-22T04:01:54.236Z,13.90
2023-01-22T04:04:21.463Z,13.25
2023-01-22T04:06:48.183Z,14.15
2023-01-22T04:09:37.951Z,10.80
2023-01-22T04:12:04.889Z,15.35
2023-01-22T04:14:31.577Z,12.00
2023-01-22T04:16:58.380Z,10.32
2023-01-22T04:19:25.204Z,13.73
2023-01-22T04:21:51.844Z,10.40
2023-01-22T04:24:18.582Z,10.70
2023-01-22T04:26:45.438Z,13.60
2023-01-22T04:29:15.148Z,9.55
2023-01-22T04:34:10.762Z,6.35
2023-01-22T04:36:37.479Z,12.50
2023-01-22T04:39:04.543Z,5.88
2023-01-22T04:41:34.355Z,6.80
2023-01-22T04:44:01.150Z,6.15
2023-01-22T04:46:27.933Z,5.65
2023-01-22T04:48:54.885Z,8.55
2023-01-22T04:51:21.584Z,4.32
2023-01-22T04:53:48.367Z,4.97
2023-01-22T04:56:15.031Z,5.72
2023-01-22T05:01:08.222Z,3.40
2023-01-22T05:03:34.904Z,5.30
2023-01-22T05:06:05.197Z,5.72
2023-01-22T05:08:31.840Z,3.85
2023-01-22T05:11:02.865Z,2.97
2023-01-22T05:13:29.957Z,5.20
2023-01-22T05:15:57.409Z,3.50
2023-01-22T05:18:24.050Z,4.80
2023-01-22T05:20:50.734Z,3.58
2023-01-22T05:23:17.587Z,3.93
2023-01-22T05:25:49.945Z,2.22
2023-01-22T05:28:16.619Z,3.00
2023-01-22T05:30:43.407Z,4.13
2023-01-22T05:33:11.540Z,3.42
2023-01-22T05:35:38.348Z,3.10
2023-01-22T05:38:05.036Z,4.28
2023-01-22T05:40:31.796Z,3.75
2023-01-22T05:43:03.566Z,3.67
2023-01-22T05:45:30.381Z,4.15
2023-01-22T05:47:57.140Z,4.53
2023-01-22T05:50:24.821Z,3.47
2023-01-22T05:52:55.848Z,3.47
2023-01-22T05:55:22.893Z,2.65
2023-01-22T05:57:50.481Z,3.70
2023-01-22T06:00:17.765Z,1.63
2023-01-22T06:02:44.685Z,2.83
2023-01-22T06:05:11.491Z,3.20
2023-01-22T06:07:38.355Z,2.67
2023-01-22T06:10:05.469Z,2.50
2023-01-22T06:12:32.117Z,2.58
2023-01-22T06:14:58.800Z,3.63
2023-01-22T06:17:25.498Z,2.90
2023-01-22T06:19:52.651Z,3.85
2023-01-22T06:22:19.451Z,4.13
2023-01-22T06:24:46.425Z,5.05
2023-01-22T06:27:16.352Z,3.92
2023-01-22T06:29:43.096Z,4.70
2023-01-22T06:32:10.343Z,3.47
2023-01-22T06:34:38.418Z,3.47
2023-01-22T06:37:05.692Z,4.03
2023-01-22T06:39:32.693Z,3.35
2023-01-22T06:41:59.961Z,4.03
2023-01-22T06:44:26.699Z,5.70
2023-01-22T06:46:53.468Z,6.00
2023-01-22T06:49:20.205Z,6.28
2023-01-22T06:51:46.853Z,5.53
2023-01-22T06:54:13.781Z,4.93
2023-01-22T06:59:07.718Z,5.32
2023-01-22T07:01:34.557Z,5.18
2023-01-22T07:04:01.269Z,4.25
2023-01-22T07:06:27.948Z,6.22
2023-01-22T07:08:56.524Z,5.57
2023-01-22T07:11:23.545Z,6.82
2023-01-22T07:13:50.271Z,7.30
2023-01-22T07:16:17.134Z,5.47
2023-01-22T07:18:44.216Z,8.48
2023-01-22T07:21:12.010Z,7.05
2023-01-22T07:23:39.036Z,6.15
2023-01-22T07:26:05.687Z,8.30
2023-01-22T07:28:33.220Z,10.65
2023-01-22T07:31:00.053Z,7.03
2023-01-22T07:33:29.902Z,6.90
2023-01-22T07:35:57.646Z,7.32
2023-01-22T07:38:27.262Z,7.15
2023-01-22T07:40:53.993Z,7.35
2023-01-22T07:43:20.768Z,7.40
2023-01-22T07:45:47.849Z,8.93
2023-01-22T07:48:14.625Z,8.88
2023-01-22T07:53:08.743Z,9.45
2023-01-22T07:55:35.582Z,10.63
2023-01-22T07:58:04.867Z,10.70
2023-01-22T08:00:34.876Z,8.52
2023-01-22T08:03:04.587Z,7.28
2023-01-22T08:05:31.573Z,7.50
2023-01-22T08:07:58.821Z,8.52
2023-01-22T08:10:25.627Z,9.50
2023-01-22T08:12:52.429Z,8.02
2023-01-22T08:15:19.627Z,6.97
2023-01-22T08:17:50.189Z,8.20
2023-01-22T08:20:18.401Z,5.93
2023-01-22T08:22:45.602Z,7.97
2023-01-22T08:25:12.328Z,6.82
2023-01-22T08:27:39.166Z,6.45
2023-01-22T08:30:06.635Z,7.82
2023-01-22T08:32:45.541Z,7.47
2023-01-22T08:35:13.586Z,9.52
2023-01-22T08:37:40.865Z,7.47
2023-01-22T08:40:11.746Z,8.38
2023-01-22T08:42:38.518Z,6.43
2023-01-22T08:45:06.355Z,8.52
2023-01-22T08:47:36.565Z,9.57
2023-01-22T08:50:04.204Z,7.32
2023-01-22T08:52:30.856Z,6.50
2023-01-22T08:54:57.694Z,6.47
2023-01-22T08:57:29.112Z,9.68
2023-01-22T09:00:00.995Z,7.55
2023-01-22T09:02:28.340Z,7.20
2023-01-22T09:04:55.027Z,7.57
2023-01-22T09:07:21.743Z,7.57
2023-01-22T09:09:48.431Z,6.97
2023-01-22T09:12:15.679Z,9.40
2023-01-22T09:14:43.696Z,7.05
2023-01-22T09:17:18.693Z,6.20
2023-01-22T09:19:46.114Z,5.07
2023-01-22T09:22:13.106Z,5.70
2023-01-22T09:24:40.050Z,5.80
2023-01-22T09:27:08.847Z,5.50
2023-01-22T09:29:35.558Z,5.18
2023-01-22T09:32:02.436Z,4.55
2023-01-22T09:34:29.235Z,5.65
2023-01-22T09:36:55.940Z,4.22
2023-01-22T09:39:22.769Z,5.00
2023-01-22T09:41:53.064Z,4.45
2023-01-22T09:44:30.333Z,5.70
2023-01-22T09:47:01.704Z,4.20
2023-01-22T09:49:43.277Z,4.75
2023-01-22T09:52:12.011Z,6.40
2023-01-22T09:54:39.365Z,5.60
2023-01-22T09:57:19.846Z,5.75
2023-01-22T09:59:58.506Z,4.90
2023-01-22T10:02:35.536Z,9.82
2023-01-22T10:05:35.327Z,4.15
2023-01-22T10:08:13.636Z,4.43
2023-01-22T10:10:40.362Z,3.63
2023-01-22T10:13:23.045Z,4.05
2023-01-22T10:15:53.173Z,4.13
2023-01-22T10:18:43.339Z,3.90
2023-01-22T10:21:17.934Z,4.28
2023-01-22T10:23:45.657Z,4.57
2023-01-22T10:26:30.721Z,3.88
2023-01-22T10:29:03.980Z,4.88
2023-01-22T10:31:33.790Z,3.35
2023-01-22T10:34:03.214Z,3.90
2023-01-22T10:36:34.448Z,2.70
2023-01-22T10:39:07.305Z,3.30
2023-01-22T10:41:34.019Z,3.08
2023-01-22T10:44:16.591Z,3.50
2023-01-22T10:46:49.352Z,3.70
2023-01-22T10:49:20.916Z,3.95
2023-01-22T10:52:18.011Z,3.47
2023-01-22T10:55:00.758Z,3.08
2023-01-22T10:57:35.877Z,4.35
2023-01-22T11:00:16.288Z,3.85
2023-01-22T11:02:46.849Z,4.80
2023-01-22T11:05:23.584Z,3.90
2023-01-22T11:08:15.369Z,6.32
2023-01-22T11:10:42.443Z,3.67
2023-01-22T11:13:34.030Z,4.15
2023-01-22T11:16:16.480Z,3.55
2023-01-22T11:18:53.791Z,3.88
2023-01-22T11:21:25.016Z,2.67
2023-01-22T11:24:03.815Z,2.60
2023-01-22T11:26:42.393Z,3.60
2023-01-22T11:29:24.080Z,3.45
2023-01-22T11:32:22.853Z,3.47
2023-01-22T11:35:03.158Z,4.25
2023-01-22T11:37:43.602Z,4.07
2023-01-22T11:40:32.099Z,3.17
2023-01-22T11:43:35.693Z,3.70
2023-01-22T11:46:27.101Z,3.60
2023-01-22T11:49:12.572Z,3.30
2023-01-22T11:51:44.666Z,3.15
2023-01-22T11:54:31.101Z,2.50
2023-01-22T11:57:24.693Z,2.88
2023-01-22T12:00:10.588Z,2.72
2023-01-22T12:02:43.496Z,6.22
2023-01-22T12:05:26.386Z,2.97
2023-01-22T12:08:43.451Z,4.28
2023-01-22T12:11:23.540Z,4.03
2023-01-22T12:14:08.563Z,5.57
2023-01-22T12:16:43.575Z,4.78
2023-01-22T12:19:29.297Z,6.22
2023-01-22T12:22:40.531Z,4.50
2023-01-22T12:25:26.209Z,6.57
2023-01-22T12:28:10.587Z,4.63
2023-01-22T12:33:39.273Z,4.50
2023-01-22T12:36:13.497Z,5.07
2023-01-22T12:38:54.295Z,5.03
2023-01-22T12:41:52.685Z,7.65
2023-01-22T12:44:25.826Z,4.85
2023-01-22T12:47:16.089Z,3.90
2023-01-22T12:52:27.475Z,6.30
2023-01-22T12:54:55.719Z,4.07
2023-01-22T12:57:28.299Z,5.32
2023-01-22T12:59:57.737Z,4.65
2023-01-22T13:02:28.440Z,5.47
2023-01-22T13:04:56.493Z,6.47
2023-01-22T13:07:29.462Z,5.72
2023-01-22T13:10:21.961Z,6.10
2023-01-22T13:12:52.729Z,6.93
2023-01-22T13:15:24.612Z,6.05
2023-01-22T13:18:05.935Z,5.25
2023-01-22T13:20:48.093Z,6.07
2023-01-22T13:23:16.055Z,5.43
2023-01-22T13:25:43.127Z,7.30
2023-01-22T13:28:19.399Z,5.05
2023-01-22T13:30:52.738Z,5.05
2023-01-22T13:33:19.385Z,6.47
2023-01-22T13:35:48.025Z,5.85
2023-01-22T13:38:20.606Z,4.97
2023-01-22T13:40:52.654Z,6.25
2023-01-22T13:43:21.308Z,7.18
2023-01-22T13:45:49.511Z,6.07
2023-01-22T13:48:18.862Z,6.15
2023-01-22T13:50:51.654Z,8.63
2023-01-22T13:53:40.736Z,7.32
2023-01-22T13:56:21.348Z,7.60
2023-01-22T13:58:49.441Z,5.65
2023-01-22T14:01:35.274Z,6.20
2023-01-22T14:04:23.996Z,8.00
2023-01-22T14:09:36.350Z,5.80
2023-01-22T14:12:25.399Z,7.25
2023-01-22T14:14:52.815Z,7.40
2023-01-22T14:17:34.398Z,7.00
2023-01-22T14:20:02.605Z,7.07
2023-01-22T14:22:29.304Z,6.10
2023-01-22T14:24:56.714Z,6.82
2023-01-22T14:27:27.899Z,7.38
2023-01-22T14:29:55.224Z,6.43
2023-01-22T14:32:24.051Z,6.97
2023-01-22T14:37:18.555Z,6.85
2023-01-22T14:39:45.278Z,4.75
2023-01-22T14:42:11.929Z,5.40
2023-01-22T14:44:38.835Z,5.60
2023-01-22T14:47:34.431Z,5.85
2023-01-22T14:50:02.085Z,6.00
2023-01-22T14:52:28.821Z,6.78
2023-01-22T14:54:56.468Z,6.32
2023-01-22T14:57:25.222Z,6.25
2023-01-22T14:59:53.243Z,6.30
2023-01-22T15:02:22.923Z,7.03
2023-01-22T15:04:50.269Z,8.15
2023-01-22T15:07:16.918Z,8.93
2023-01-22T15:09:43.879Z,8.02
2023-01-22T15:12:11.962Z,7.10
2023-01-22T15:14:38.710Z,9.70
2023-01-22T15:17:05.640Z,8.75
2023-01-22T15:19:40.999Z,7.03
2023-01-22T15:22:08.339Z,6.43
2023-01-22T15:24:35.217Z,6.22
2023-01-22T15:27:02.566Z,10.20
2023-01-22T15:29:31.336Z,6.75
2023-01-22T15:31:58.528Z,5.72
2023-01-22T15:34:28.735Z,6.25
2023-01-22T15:36:55.399Z,6.78
2023-01-22T15:39:22.039Z,6.40
2023-01-22T15:41:48.683Z,7.68
2023-01-22T15:44:15.559Z,7.20
2023-01-22T15:46:46.381Z,7.30
2023-01-22T15:49:13.943Z,7.10
2023-01-22T15:51:49.039Z,5.95
2023-01-22T15:54:16.746Z,9.57
2023-01-22T15:56:43.782Z,6.68
2023-01-22T15:59:14.245Z,7.70
2023-01-22T16:01:41.011Z,6.57
2023-01-22T16:04:08.172Z,7.18
2023-01-22T16:06:35.417Z,9.30
2023-01-22T16:09:04.469Z,7.18
2023-01-22T16:11:32.947Z,9.27
2023-01-22T16:16:36.724Z,12.85
2023-01-22T16:19:06.612Z,12.88
2023-01-22T16:21:33.527Z,13.90
2023-01-22T16:24:02.043Z,12.07
2023-01-22T16:26:35.220Z,8.55
2023-01-22T16:29:04.917Z,9.10
2023-01-22T16:31:33.107Z,9.20
2023-01-22T16:34:06.444Z,9.93
2023-01-22T16:36:33.646Z,8.75
2023-01-22T16:39:01.352Z,11.48
2023-01-22T16:41:39.824Z,9.55
2023-01-22T16:44:12.571Z,12.27
2023-01-22T16:46:42.185Z,10.43
2023-01-22T16:49:16.704Z,9.65
2023-01-22T16:51:46.434Z,10.25
2023-01-22T16:54:37.056Z,10.63
2023-01-22T16:57:06.846Z,11.32
2023-01-22T16:59:35.959Z,12.38
2023-01-22T17:02:08.136Z,10.85
2023-01-22T17:04:35.265Z,9.68
2023-01-22T17:07:02.013Z,11.77
2023-01-22T17:09:36.419Z,9.70
2023-01-22T17:12:05.471Z,11.40
2023-01-22T17:14:36.311Z,12.18
2023-01-22T17:17:05.588Z,9.20
2023-01-22T17:19:33.413Z,9.40
2023-01-22T17:22:01.907Z,9.27
2023-01-22T17:24:29.980Z,12.45
2023-01-22T17:26:58.538Z,7.60
2023-01-22T17:29:26.152Z,11.23
2023-01-22T17:31:54.022Z,11.30
2023-01-22T17:34:22.072Z,11.38
2023-01-22T17:39:24.488Z,11.98
2023-01-22T17:44:17.812Z,10.55
2023-01-22T17:46:44.878Z,10.05
2023-01-22T17:49:11.685Z,11.07
2023-01-22T17:51:39.003Z,12.23
2023-01-22T17:54:06.392Z,10.00
2023-01-22T17:56:35.755Z,10.48
2023-01-22T17:59:05.120Z,8.02
2023-01-22T18:01:33.018Z,10.35
2023-01-22T18:04:08.741Z,10.38
2023-01-22T18:06:37.574Z,11.02
2023-01-22T18:09:06.084Z,10.82
2023-01-22T18:11:34.158Z,9.77
2023-01-22T18:14:04.021Z,8.95
2023-01-22T18:16:34.497Z,9.95
2023-01-22T18:19:03.612Z,10.73
2023-01-22T18:21:30.239Z,10.38
2023-01-22T18:23:59.573Z,9.77
2023-01-22T18:26:26.817Z,11.25
2023-01-22T18:28:55.821Z,11.55
2023-01-22T18:31:27.510Z,12.63
2023-01-22T18:33:58.151Z,9.43
2023-01-22T18:36:27.143Z,10.02
2023-01-22T18:38:54.060Z,9.50
2023-01-22T18:41:29.162Z,9.93
2023-01-22T18:43:59.424Z,11.43
2023-01-22T18:46:31.855Z,15.45
2023-01-22T18:49:04.709Z,10.82
2023-01-22T18:51:33.528Z,10.38
2023-01-22T18:54:08.156Z,13.95
2023-01-22T18:56:35.285Z,11.18
2023-01-22T18:59:01.990Z,12.27
2023-01-22T19:01:31.508Z,12.85
2023-01-22T19:04:01.716Z,10.45
2023-01-22T19:06:31.516Z,14.18
2023-01-22T19:09:01.928Z,17.90
2023-01-22T19:11:30.107Z,14.18
2023-01-22T19:14:01.413Z,15.37
2023-01-22T19:16:29.759Z,17.17
2023-01-22T19:19:03.363Z,17.13
2023-01-22T19:21:33.713Z,15.75
2023-01-22T19:24:01.931Z,16.75
2023-01-22T19:26:36.728Z,15.85
2023-01-22T19:29:14.363Z,21.67
2023-01-22T19:31:48.603Z,13.85
2023-01-22T19:34:23.419Z,16.23
2023-01-22T19:36:52.706Z,17.95
2023-01-22T19:39:20.317Z,16.33
2023-01-22T19:41:47.855Z,16.65
2023-01-22T19:44:15.246Z,19.77
2023-01-22T19:46:42.619Z,16.13
2023-01-22T19:49:12.939Z,18.15
2023-01-22T19:51:46.430Z,18.40
2023-01-22T19:54:14.779Z,17.75
2023-01-22T19:56:45.519Z,19.00
2023-01-22T19:59:15.964Z,19.38
2023-01-22T20:01:45.728Z,19.40
2023-01-22T20:04:21.564Z,19.15
2023-01-22T20:06:52.836Z,23.02
2023-01-22T20:09:22.067Z,19.80
2023-01-22T20:14:18.086Z,17.85
2023-01-22T20:16:45.650Z,20.73
2023-01-22T20:19:12.414Z,19.05
2023-01-22T20:21:39.225Z,15.75
2023-01-22T20:24:06.668Z,21.75
2023-01-22T20:26:34.152Z,18.50
2023-01-22T20:29:01.450Z,22.20
2023-01-22T20:31:28.337Z,17.80
2023-01-22T20:33:57.207Z,16.55
2023-01-22T20:36:29.892Z,17.42
2023-01-22T20:38:57.734Z,18.20
2023-01-22T20:41:27.520Z,16.13
2023-01-22T20:43:55.465Z,18.50
2023-01-22T20:46:24.639Z,15.68
2023-01-22T20:48:52.882Z,22.05
2023-01-22T20:51:22.799Z,17.95
2023-01-22T20:53:52.759Z,16.63
2023-01-22T20:56:31.708Z,21.63
2023-01-22T20:59:05.508Z,21.90
2023-01-22T21:01:33.464Z,16.33
2023-01-22T21:04:02.165Z,21.35
2023-01-22T21:06:32.156Z,22.52
2023-01-22T21:09:01.230Z,17.47
2023-01-22T21:11:31.048Z,24.43
2023-01-22T21:13:59.916Z,20.20
2023-01-22T21:16:32.104Z,22.20
2023-01-22T21:19:04.360Z,22.88
2023-01-22T21:21:32.556Z,19.02
2023-01-22T21:23:59.849Z,22.58
2023-01-22T21:26:31.947Z,20.17
2023-01-22T21:29:04.703Z,23.80
2023-01-22T21:31:34.589Z,19.10
2023-01-22T21:34:03.766Z,20.90
2023-01-22T21:36:30.337Z,18.80
2023-01-22T21:38:57.226Z,21.63
2023-01-22T21:41:26.249Z,17.47
2023-01-22T21:44:11.830Z,21.23
2023-01-22T21:46:41.635Z,20.85
2023-01-22T21:49:20.146Z,18.80
2023-01-22T21:54:20.900Z,21.13
2023-01-22T21:56:53.096Z,16.55
2023-01-22T21:59:20.229Z,15.55
2023-01-22T22:01:47.543Z,17.33
2023-01-22T22:04:15.168Z,17.70
2023-01-22T22:06:42.245Z,18.03
2023-01-22T22:09:14.763Z,18.20
2023-01-22T22:11:42.368Z,15.20
2023-01-22T22:14:22.135Z,14.68
2023-01-22T22:16:49.497Z,16.10
2023-01-22T22:19:17.608Z,16.60
2023-01-22T22:21:45.506Z,16.60
2023-01-22T22:24:12.921Z,16.03
2023-01-22T22:26:40.171Z,18.25
2023-01-22T22:29:08.265Z,18.07
2023-01-22T22:31:35.182Z,19.87
2023-01-22T22:34:02.051Z,17.87
2023-01-22T22:36:30.347Z,15.63
2023-01-22T22:38:57.708Z,21.07
2023-01-22T22:41:27.173Z,22.42
2023-01-22T22:43:55.472Z,17.95
2023-01-22T22:46:34.242Z,18.67
2023-01-22T22:49:01.857Z,16.60
2023-01-22T22:51:39.890Z,16.15
2023-01-22T22:54:11.706Z,16.43
2023-01-22T22:56:38.597Z,17.58
2023-01-22T22:59:05.386Z,17.52
2023-01-22T23:01:33.435Z,19.30
2023-01-22T23:04:01.082Z,20.65
2023-01-22T23:06:30.780Z,18.20
2023-01-22T23:08:58.664Z,18.30
2023-01-22T23:11:31.184Z,16.13
2023-01-22T23:14:01.712Z,15.90
2023-01-22T23:16:32.214Z,15.23
2023-01-22T23:19:01.452Z,20.85
2023-01-22T23:21:29.534Z,16.53
2023-01-22T23:23:56.930Z,16.43
2023-01-22T23:26:30.075Z,16.45
2023-01-22T23:28:58.886Z,16.35
2023-01-22T23:31:27.261Z,17.05
2023-01-22T23:33:55.882Z,17.90
2023-01-22T23:36:23.254Z,19.73
2023-01-22T23:38:50.019Z,16.13
2023-01-22T23:41:18.086Z,19.23
2023-01-22T23:43:45.486Z,21.67
2023-01-22T23:46:24.607Z,19.02
2023-01-22T23:48:55.754Z,22.25
2023-01-22T23:51:22.706Z,15.63
2023-01-22T23:53:52.885Z,19.95
2023-01-22T23:56:21.742Z,19.95
2023-01-22T23:58:48.948Z,18.98
